TimeEDT,TemperatureF,Dew PointF,Humidity,Sea Level PressureIn,VisibilityMPH,Wind Direction,Wind SpeedMPH,Gust SpeedMPH,PrecipitationIn,Events,Conditions,WindDirDegrees,DateUTC
12:54 AM,66.0,63.0,90,29.91,10.0,WSW,4.6,-,N/A,,Scattered Clouds,250,2013-08-04 04:54:00
1:54 AM,66.0,63.0,90,29.91,10.0,West,3.5,-,N/A,,Scattered Clouds,260,2013-08-04 05:54:00
2:54 AM,66.0,63.0,90,29.90,10.0,West,3.5,-,N/A,,Scattered Clouds,280,2013-08-04 06:54:00
3:54 AM,66.9,62.1,84,29.90,10.0,NW,5.8,-,N/A,,Scattered Clouds,310,2013-08-04 07:54:00
4:54 AM,66.0,61.0,84,29.90,10.0,NNW,5.8,-,N/A,,Scattered Clouds,330,2013-08-04 08:54:00
5:54 AM,64.0,60.1,87,29.92,10.0,WNW,3.5,-,N/A,,Scattered Clouds,290,2013-08-04 09:54:00
6:54 AM,64.9,57.0,75,29.94,10.0,NNW,9.2,-,N/A,,Scattered Clouds,330,2013-08-04 10:54:00
7:54 AM,68.0,57.0,68,29.95,10.0,NNW,8.1,-,N/A,,Partly Cloudy,340,2013-08-04 11:54:00
8:54 AM,71.1,57.0,61,29.96,10.0,NNW,5.8,-,N/A,,Partly Cloudy,330,2013-08-04 12:54:00
9:54 AM,73.9,55.9,53,29.96,10.0,NNW,8.1,-,N/A,,Clear,330,2013-08-04 13:54:00
10:54 AM,75.9,52.0,43,29.96,10.0,NNW,11.5,20.7,N/A,,Partly Cloudy,340,2013-08-04 14:54:00
11:54 AM,78.1,53.1,42,29.96,10.0,NW,13.8,19.6,N/A,,Scattered Clouds,310,2013-08-04 15:54:00
12:54 PM,80.1,52.0,38,29.95,10.0,North,10.4,17.3,N/A,,Scattered Clouds,350,2013-08-04 16:54:00
1:54 PM,79.0,53.1,40,29.95,10.0,NNW,10.4,17.3,N/A,,Scattered Clouds,330,2013-08-04 17:54:00
2:54 PM,79.0,52.0,39,29.94,10.0,NNW,11.5,-,N/A,,Scattered Clouds,340,2013-08-04 18:54:00
3:54 PM,81.0,51.1,35,29.94,10.0,NNW,12.7,21.9,N/A,,Scattered Clouds,340,2013-08-04 19:54:00
4:54 PM,81.0,51.1,35,29.94,10.0,NW,15.0,20.7,N/A,,Scattered Clouds,310,2013-08-04 20:54:00
5:54 PM,79.0,51.1,38,29.95,10.0,NNW,12.7,20.7,N/A,,Scattered Clouds,330,2013-08-04 21:54:00
6:54 PM,78.1,48.0,35,29.96,10.0,NW,9.2,17.3,N/A,,Partly Cloudy,310,2013-08-04 22:54:00
7:54 PM,75.0,48.0,38,29.97,10.0,Variable,5.8,-,N/A,,Scattered Clouds,0,2013-08-04 23:54:00
8:54 PM,69.1,52.0,54,29.99,10.0,Calm,Calm,-,N/A,,Scattered Clouds,0,2013-08-05 00:54:00
9:54 PM,66.0,54.0,65,30.00,10.0,Calm,Calm,-,N/A,,Partly Cloudy,0,2013-08-05 01:54:00
10:54 PM,64.9,54.0,68,30.01,10.0,Calm,Calm,-,N/A,,Partly Cloudy,0,2013-08-05 02:54:00
11:54 PM,64.0,54.0,70,30.02,10.0,Calm,Calm,-,N/A,,Scattered Clouds,0,2013-08-05 03:54:00